sensor_id;sensor_type;location;lat;lon;timestamp;temperature;humidity
35325;DHT22;35135;47.510;19.036;2023-06-05T00:01:56;23.70;45.90
35325;DHT22;35135;47.510;19.036;2023-06-05T00:04:21;23.70;45.90
35325;DHT22;35135;47.510;19.036;2023-06-05T00:06:49;23.70;46.10
35325;DHT22;35135;47.510;19.036;2023-06-05T00:09:16;23.60;46.30
35325;DHT22;35135;47.510;19.036;2023-06-05T00:11:42;23.60;46.20
35325;DHT22;35135;47.510;19.036;2023-06-05T00:14:08;23.60;46.20
35325;DHT22;35135;47.510;19.036;2023-06-05T00:16:34;23.70;46.20
35325;DHT22;35135;47.510;19.036;2023-06-05T00:19:00;23.70;46.10
35325;DHT22;35135;47.510;19.036;2023-06-05T00:21:26;23.70;45.90
35325;DHT22;35135;47.510;19.036;2023-06-05T00:23:52;23.70;46.10
35325;DHT22;35135;47.510;19.036;2023-06-05T00:26:18;23.60;46.00
35325;DHT22;35135;47.510;19.036;2023-06-05T00:28:43;23.60;46.30
35325;DHT22;35135;47.510;19.036;2023-06-05T00:31:09;23.60;46.20
35325;DHT22;35135;47.510;19.036;2023-06-05T00:33:35;23.70;46.10
35325;DHT22;35135;47.510;19.036;2023-06-05T00:36:00;23.70;45.90
35325;DHT22;35135;47.510;19.036;2023-06-05T00:38:26;23.70;46.10
35325;DHT22;35135;47.510;19.036;2023-06-05T00:40:52;23.70;45.70
35325;DHT22;35135;47.510;19.036;2023-06-05T00:43:17;23.70;45.70
35325;DHT22;35135;47.510;19.036;2023-06-05T00:45:43;23.70;46.10
35325;DHT22;35135;47.510;19.036;2023-06-05T00:48:09;23.60;46.20
35325;DHT22;35135;47.510;19.036;2023-06-05T00:50:36;23.70;46.40
35325;DHT22;35135;47.510;19.036;2023-06-05T00:53:04;23.70;45.90
35325;DHT22;35135;47.510;19.036;2023-06-05T00:55:31;23.70;45.90
35325;DHT22;35135;47.510;19.036;2023-06-05T00:57:57;23.60;46.00
35325;DHT22;35135;47.510;19.036;2023-06-05T01:00:22;23.60;46.10
35325;DHT22;35135;47.510;19.036;2023-06-05T01:02:49;23.60;46.10
35325;DHT22;35135;47.510;19.036;2023-06-05T01:05:19;23.60;46.20
35325;DHT22;35135;47.510;19.036;2023-06-05T01:07:45;23.50;46.30
35325;DHT22;35135;47.510;19.036;2023-06-05T01:10:13;23.50;46.30
35325;DHT22;35135;47.510;19.036;2023-06-05T01:12:58;23.50;46.20
35325;DHT22;35135;47.510;19.036;2023-06-05T01:15:29;23.50;46.20
35325;DHT22;35135;47.510;19.036;2023-06-05T01:17:59;23.50;46.80
35325;DHT22;35135;47.510;19.036;2023-06-05T01:20:41;23.50;46.40
35325;DHT22;35135;47.510;19.036;2023-06-05T01:23:08;23.50;46.30
35325;DHT22;35135;47.510;19.036;2023-06-05T01:25:35;23.50;46.30
35325;DHT22;35135;47.510;19.036;2023-06-05T01:30:36;23.50;46.40
35325;DHT22;35135;47.510;19.036;2023-06-05T01:33:16;23.50;46.30
35325;DHT22;35135;47.510;19.036;2023-06-05T01:35:46;23.50;46.50
35325;DHT22;35135;47.510;19.036;2023-06-05T01:38:17;23.40;46.50
35325;DHT22;35135;47.510;19.036;2023-06-05T01:40:44;23.40;46.50
35325;DHT22;35135;47.510;19.036;2023-06-05T01:43:11;23.40;46.70
35325;DHT22;35135;47.510;19.036;2023-06-05T01:45:38;23.40;46.70
35325;DHT22;35135;47.510;19.036;2023-06-05T01:48:09;23.40;46.70
35325;DHT22;35135;47.510;19.036;2023-06-05T01:50:36;23.40;46.70
35325;DHT22;35135;47.510;19.036;2023-06-05T01:53:04;23.40;46.70
35325;DHT22;35135;47.510;19.036;2023-06-05T01:55:30;23.40;46.60
35325;DHT22;35135;47.510;19.036;2023-06-05T01:57:56;23.40;46.60
35325;DHT22;35135;47.510;19.036;2023-06-05T02:00:22;23.40;46.60
35325;DHT22;35135;47.510;19.036;2023-06-05T02:02:49;23.40;46.60
35325;DHT22;35135;47.510;19.036;2023-06-05T02:05:16;23.40;46.60
35325;DHT22;35135;47.510;19.036;2023-06-05T02:07:45;23.50;46.50
35325;DHT22;35135;47.510;19.036;2023-06-05T02:10:31;23.50;46.40
35325;DHT22;35135;47.510;19.036;2023-06-05T02:12:57;23.50;46.40
35325;DHT22;35135;47.510;19.036;2023-06-05T02:15:22;23.40;46.60
35325;DHT22;35135;47.510;19.036;2023-06-05T02:17:48;23.40;46.70
35325;DHT22;35135;47.510;19.036;2023-06-05T02:20:21;23.40;46.70
35325;DHT22;35135;47.510;19.036;2023-06-05T02:22:47;23.40;46.70
35325;DHT22;35135;47.510;19.036;2023-06-05T02:25:18;23.40;46.70
35325;DHT22;35135;47.510;19.036;2023-06-05T02:27:44;23.50;46.80
35325;DHT22;35135;47.510;19.036;2023-06-05T02:30:10;23.50;46.70
35325;DHT22;35135;47.510;19.036;2023-06-05T02:32:37;23.50;46.60
35325;DHT22;35135;47.510;19.036;2023-06-05T02:35:07;23.40;46.90
35325;DHT22;35135;47.510;19.036;2023-06-05T02:37:33;23.40;46.60
35325;DHT22;35135;47.510;19.036;2023-06-05T02:40:19;23.40;46.70
35325;DHT22;35135;47.510;19.036;2023-06-05T02:42:45;23.40;46.70
35325;DHT22;35135;47.510;19.036;2023-06-05T02:45:11;23.40;46.90
35325;DHT22;35135;47.510;19.036;2023-06-05T02:47:36;23.40;46.90
35325;DHT22;35135;47.510;19.036;2023-06-05T02:50:02;23.40;46.90
35325;DHT22;35135;47.510;19.036;2023-06-05T02:52:28;23.30;46.80
35325;DHT22;35135;47.510;19.036;2023-06-05T02:54:55;23.30;47.00
35325;DHT22;35135;47.510;19.036;2023-06-05T02:57:21;23.30;47.00
35325;DHT22;35135;47.510;19.036;2023-06-05T02:59:46;23.30;47.20
35325;DHT22;35135;47.510;19.036;2023-06-05T03:02:12;23.20;47.00
35325;DHT22;35135;47.510;19.036;2023-06-05T03:04:38;23.20;47.10
35325;DHT22;35135;47.510;19.036;2023-06-05T03:07:08;23.20;47.20
35325;DHT22;35135;47.510;19.036;2023-06-05T03:09:35;23.20;47.20
35325;DHT22;35135;47.510;19.036;2023-06-05T03:12:02;23.20;47.20
35325;DHT22;35135;47.510;19.036;2023-06-05T03:14:27;23.20;47.20
35325;DHT22;35135;47.510;19.036;2023-06-05T03:16:53;23.30;47.10
35325;DHT22;35135;47.510;19.036;2023-06-05T03:19:19;23.30;47.10
35325;DHT22;35135;47.510;19.036;2023-06-05T03:21:45;23.30;47.20
35325;DHT22;35135;47.510;19.036;2023-06-05T03:24:13;23.20;47.30
35325;DHT22;35135;47.510;19.036;2023-06-05T03:26:40;23.20;47.30
35325;DHT22;35135;47.510;19.036;2023-06-05T03:29:07;23.20;47.40
35325;DHT22;35135;47.510;19.036;2023-06-05T03:31:33;23.20;47.60
35325;DHT22;35135;47.510;19.036;2023-06-05T03:33:59;23.20;47.60
35325;DHT22;35135;47.510;19.036;2023-06-05T03:36:25;23.10;47.60
35325;DHT22;35135;47.510;19.036;2023-06-05T03:38:54;23.10;47.60
35325;DHT22;35135;47.510;19.036;2023-06-05T03:41:20;23.20;47.60
35325;DHT22;35135;47.510;19.036;2023-06-05T03:43:47;23.20;47.40
35325;DHT22;35135;47.510;19.036;2023-06-05T03:46:12;23.30;47.40
35325;DHT22;35135;47.510;19.036;2023-06-05T03:48:47;23.30;47.30
35325;DHT22;35135;47.510;19.036;2023-06-05T03:51:14;23.30;47.30
35325;DHT22;35135;47.510;19.036;2023-06-05T03:53:44;23.30;47.40
35325;DHT22;35135;47.510;19.036;2023-06-05T03:56:10;23.30;47.50
35325;DHT22;35135;47.510;19.036;2023-06-05T03:58:37;23.40;47.30
35325;DHT22;35135;47.510;19.036;2023-06-05T04:01:07;23.40;47.20
35325;DHT22;35135;47.510;19.036;2023-06-05T04:03:32;23.40;47.30
35325;DHT22;35135;47.510;19.036;2023-06-05T04:06:03;23.40;47.40
35325;DHT22;35135;47.510;19.036;2023-06-05T04:08:28;23.40;47.40
35325;DHT22;35135;47.510;19.036;2023-06-05T04:10:54;23.40;47.30
35325;DHT22;35135;47.510;19.036;2023-06-05T04:13:20;23.30;47.30
35325;DHT22;35135;47.510;19.036;2023-06-05T04:15:47;23.30;47.40
35325;DHT22;35135;47.510;19.036;2023-06-05T04:18:14;23.40;47.40
35325;DHT22;35135;47.510;19.036;2023-06-05T04:20:40;23.40;47.30
35325;DHT22;35135;47.510;19.036;2023-06-05T04:23:06;23.40;47.20
35325;DHT22;35135;47.510;19.036;2023-06-05T04:25:31;23.40;47.40
35325;DHT22;35135;47.510;19.036;2023-06-05T04:27:57;23.40;47.60
35325;DHT22;35135;47.510;19.036;2023-06-05T04:30:23;23.50;47.50
35325;DHT22;35135;47.510;19.036;2023-06-05T04:32:50;23.50;47.70
35325;DHT22;35135;47.510;19.036;2023-06-05T04:35:22;23.50;47.30
35325;DHT22;35135;47.510;19.036;2023-06-05T04:37:48;23.50;47.50
35325;DHT22;35135;47.510;19.036;2023-06-05T04:40:18;23.50;47.70
35325;DHT22;35135;47.510;19.036;2023-06-05T04:42:45;23.40;47.70
35325;DHT22;35135;47.510;19.036;2023-06-05T04:45:11;23.40;47.50
35325;DHT22;35135;47.510;19.036;2023-06-05T04:47:37;23.40;47.50
35325;DHT22;35135;47.510;19.036;2023-06-05T04:50:04;23.50;47.40
35325;DHT22;35135;47.510;19.036;2023-06-05T04:52:32;23.50;47.50
35325;DHT22;35135;47.510;19.036;2023-06-05T04:55:02;23.40;47.70
35325;DHT22;35135;47.510;19.036;2023-06-05T04:57:28;23.40;47.90
35325;DHT22;35135;47.510;19.036;2023-06-05T04:59:55;23.40;47.80
35325;DHT22;35135;47.510;19.036;2023-06-05T05:02:22;23.40;48.00
35325;DHT22;35135;47.510;19.036;2023-06-05T05:04:48;23.40;47.90
35325;DHT22;35135;47.510;19.036;2023-06-05T05:07:14;23.30;47.90
35325;DHT22;35135;47.510;19.036;2023-06-05T05:09:42;23.40;48.10
35325;DHT22;35135;47.510;19.036;2023-06-05T05:12:09;23.40;47.90
35325;DHT22;35135;47.510;19.036;2023-06-05T05:14:37;23.40;47.90
35325;DHT22;35135;47.510;19.036;2023-06-05T05:17:04;23.40;47.80
35325;DHT22;35135;47.510;19.036;2023-06-05T05:19:31;23.40;47.90
35325;DHT22;35135;47.510;19.036;2023-06-05T05:21:58;23.40;47.60
35325;DHT22;35135;47.510;19.036;2023-06-05T05:24:24;23.40;47.60
35325;DHT22;35135;47.510;19.036;2023-06-05T05:26:51;23.40;47.70
35325;DHT22;35135;47.510;19.036;2023-06-05T05:29:17;23.40;47.50
35325;DHT22;35135;47.510;19.036;2023-06-05T05:31:44;23.40;47.50
35325;DHT22;35135;47.510;19.036;2023-06-05T05:34:14;23.40;47.50
35325;DHT22;35135;47.510;19.036;2023-06-05T05:36:40;23.40;47.50
35325;DHT22;35135;47.510;19.036;2023-06-05T05:39:06;23.40;47.60
35325;DHT22;35135;47.510;19.036;2023-06-05T05:41:33;23.40;47.50
35325;DHT22;35135;47.510;19.036;2023-06-05T05:43:59;23.40;47.50
35325;DHT22;35135;47.510;19.036;2023-06-05T05:46:24;23.40;47.50
35325;DHT22;35135;47.510;19.036;2023-06-05T05:48:50;23.40;47.60
35325;DHT22;35135;47.510;19.036;2023-06-05T05:51:17;23.40;47.70
35325;DHT22;35135;47.510;19.036;2023-06-05T05:53:42;23.30;47.60
35325;DHT22;35135;47.510;19.036;2023-06-05T05:56:08;23.30;47.80
35325;DHT22;35135;47.510;19.036;2023-06-05T05:58:34;23.30;48.10
35325;DHT22;35135;47.510;19.036;2023-06-05T06:01:00;23.30;48.00
35325;DHT22;35135;47.510;19.036;2023-06-05T06:03:26;23.30;48.00
35325;DHT22;35135;47.510;19.036;2023-06-05T06:05:55;23.30;48.10
35325;DHT22;35135;47.510;19.036;2023-06-05T06:08:22;23.30;48.10
35325;DHT22;35135;47.510;19.036;2023-06-05T06:10:48;23.30;48.10
35325;DHT22;35135;47.510;19.036;2023-06-05T06:13:14;23.40;48.10
35325;DHT22;35135;47.510;19.036;2023-06-05T06:15:39;23.40;48.10
35325;DHT22;35135;47.510;19.036;2023-06-05T06:18:06;23.40;48.20
35325;DHT22;35135;47.510;19.036;2023-06-05T06:20:32;23.40;48.30
35325;DHT22;35135;47.510;19.036;2023-06-05T06:22:59;23.40;48.20
35325;DHT22;35135;47.510;19.036;2023-06-05T06:25:25;23.40;48.20
35325;DHT22;35135;47.510;19.036;2023-06-05T06:27:59;23.40;48.20
35325;DHT22;35135;47.510;19.036;2023-06-05T06:30:25;23.50;48.30
35325;DHT22;35135;47.510;19.036;2023-06-05T06:32:53;23.50;48.20
35325;DHT22;35135;47.510;19.036;2023-06-05T06:35:21;23.50;48.10
35325;DHT22;35135;47.510;19.036;2023-06-05T06:37:48;23.50;48.30
35325;DHT22;35135;47.510;19.036;2023-06-05T06:40:14;23.50;48.50
35325;DHT22;35135;47.510;19.036;2023-06-05T06:42:40;23.50;48.80
35325;DHT22;35135;47.510;19.036;2023-06-05T06:45:06;23.50;49.50
35325;DHT22;35135;47.510;19.036;2023-06-05T06:47:32;23.50;48.80
35325;DHT22;35135;47.510;19.036;2023-06-05T06:49:58;23.40;49.00
35325;DHT22;35135;47.510;19.036;2023-06-05T06:52:23;23.50;49.30
35325;DHT22;35135;47.510;19.036;2023-06-05T06:54:49;23.40;49.10
35325;DHT22;35135;47.510;19.036;2023-06-05T06:57:15;23.40;49.20
35325;DHT22;35135;47.510;19.036;2023-06-05T06:59:41;23.40;49.20
35325;DHT22;35135;47.510;19.036;2023-06-05T07:02:15;23.40;49.20
35325;DHT22;35135;47.510;19.036;2023-06-05T07:04:41;23.40;49.40
35325;DHT22;35135;47.510;19.036;2023-06-05T07:07:11;23.40;49.40
35325;DHT22;35135;47.510;19.036;2023-06-05T07:09:38;23.40;49.40
35325;DHT22;35135;47.510;19.036;2023-06-05T07:12:04;23.40;49.50
35325;DHT22;35135;47.510;19.036;2023-06-05T07:14:32;23.40;49.10
35325;DHT22;35135;47.510;19.036;2023-06-05T07:16:59;23.40;49.70
35325;DHT22;35135;47.510;19.036;2023-06-05T07:19:28;23.40;49.20
35325;DHT22;35135;47.510;19.036;2023-06-05T07:21:55;23.40;49.20
35325;DHT22;35135;47.510;19.036;2023-06-05T07:24:21;23.40;49.50
35325;DHT22;35135;47.510;19.036;2023-06-05T07:27:00;23.40;49.30
35325;DHT22;35135;47.510;19.036;2023-06-05T07:29:25;23.40;49.20
35325;DHT22;35135;47.510;19.036;2023-06-05T07:31:53;23.40;49.50
35325;DHT22;35135;47.510;19.036;2023-06-05T07:34:21;23.40;49.20
35325;DHT22;35135;47.510;19.036;2023-06-05T07:36:48;23.40;49.20
35325;DHT22;35135;47.510;19.036;2023-06-05T07:39:15;23.50;49.10
35325;DHT22;35135;47.510;19.036;2023-06-05T07:41:41;23.50;49.20
35325;DHT22;35135;47.510;19.036;2023-06-05T07:44:11;23.50;49.40
35325;DHT22;35135;47.510;19.036;2023-06-05T07:46:41;23.50;49.40
35325;DHT22;35135;47.510;19.036;2023-06-05T07:49:07;23.40;49.60
35325;DHT22;35135;47.510;19.036;2023-06-05T07:51:34;23.40;50.50
35325;DHT22;35135;47.510;19.036;2023-06-05T07:54:12;23.40;49.80
35325;DHT22;35135;47.510;19.036;2023-06-05T07:56:38;23.40;50.60
35325;DHT22;35135;47.510;19.036;2023-06-05T07:59:05;23.40;49.70
35325;DHT22;35135;47.510;19.036;2023-06-05T08:01:32;23.40;49.70
35325;DHT22;35135;47.510;19.036;2023-06-05T08:04:08;23.40;49.80
35325;DHT22;35135;47.510;19.036;2023-06-05T08:06:36;23.40;49.80
35325;DHT22;35135;47.510;19.036;2023-06-05T08:09:04;23.40;50.10
35325;DHT22;35135;47.510;19.036;2023-06-05T08:11:30;23.40;49.80
35325;DHT22;35135;47.510;19.036;2023-06-05T08:13:56;23.40;49.90
35325;DHT22;35135;47.510;19.036;2023-06-05T08:16:22;23.40;50.00
35325;DHT22;35135;47.510;19.036;2023-06-05T08:18:47;23.50;49.80
35325;DHT22;35135;47.510;19.036;2023-06-05T08:21:13;23.50;49.80
35325;DHT22;35135;47.510;19.036;2023-06-05T08:23:39;23.50;49.40
35325;DHT22;35135;47.510;19.036;2023-06-05T08:26:05;23.50;49.30
35325;DHT22;35135;47.510;19.036;2023-06-05T08:28:40;23.50;49.00
35325;DHT22;35135;47.510;19.036;2023-06-05T08:31:07;23.50;48.90
35325;DHT22;35135;47.510;19.036;2023-06-05T08:33:34;23.50;48.70
35325;DHT22;35135;47.510;19.036;2023-06-05T08:35:59;23.50;48.60
35325;DHT22;35135;47.510;19.036;2023-06-05T08:38:25;23.50;48.50
35325;DHT22;35135;47.510;19.036;2023-06-05T08:40:56;23.50;48.20
35325;DHT22;35135;47.510;19.036;2023-06-05T08:43:25;23.50;48.20
35325;DHT22;35135;47.510;19.036;2023-06-05T08:45:55;23.50;48.00
35325;DHT22;35135;47.510;19.036;2023-06-05T08:48:24;23.50;47.60
35325;DHT22;35135;47.510;19.036;2023-06-05T08:50:50;23.50;47.70
35325;DHT22;35135;47.510;19.036;2023-06-05T08:53:17;23.50;48.00
35325;DHT22;35135;47.510;19.036;2023-06-05T08:55:52;23.60;48.00
35325;DHT22;35135;47.510;19.036;2023-06-05T08:58:18;23.60;47.80
35325;DHT22;35135;47.510;19.036;2023-06-05T09:00:45;23.60;47.70
35325;DHT22;35135;47.510;19.036;2023-06-05T09:03:14;23.60;47.70
35325;DHT22;35135;47.510;19.036;2023-06-05T09:05:46;23.60;47.70
35325;DHT22;35135;47.510;19.036;2023-06-05T09:08:16;23.60;47.60
35325;DHT22;35135;47.510;19.036;2023-06-05T09:10:43;23.60;47.60
35325;DHT22;35135;47.510;19.036;2023-06-05T09:13:08;23.60;47.80
35325;DHT22;35135;47.510;19.036;2023-06-05T09:15:35;23.60;47.70
35325;DHT22;35135;47.510;19.036;2023-06-05T09:20:40;23.60;47.80
35325;DHT22;35135;47.510;19.036;2023-06-05T09:23:24;23.70;47.80
35325;DHT22;35135;47.510;19.036;2023-06-05T09:25:57;23.70;47.90
35325;DHT22;35135;47.510;19.036;2023-06-05T09:28:22;23.70;47.80
35325;DHT22;35135;47.510;19.036;2023-06-05T09:31:00;23.70;47.80
35325;DHT22;35135;47.510;19.036;2023-06-05T09:33:30;23.80;47.70
35325;DHT22;35135;47.510;19.036;2023-06-05T09:36:04;23.90;47.70
35325;DHT22;35135;47.510;19.036;2023-06-05T09:38:30;23.90;47.70
35325;DHT22;35135;47.510;19.036;2023-06-05T09:41:07;23.90;47.90
35325;DHT22;35135;47.510;19.036;2023-06-05T09:43:33;23.90;47.80
35325;DHT22;35135;47.510;19.036;2023-06-05T09:46:23;23.90;47.70
35325;DHT22;35135;47.510;19.036;2023-06-05T09:48:58;23.90;48.10
35325;DHT22;35135;47.510;19.036;2023-06-05T09:51:26;24.00;47.90
35325;DHT22;35135;47.510;19.036;2023-06-05T09:53:52;24.00;48.00
35325;DHT22;35135;47.510;19.036;2023-06-05T09:56:20;24.00;47.90
35325;DHT22;35135;47.510;19.036;2023-06-05T09:58:48;24.10;48.20
35325;DHT22;35135;47.510;19.036;2023-06-05T10:01:19;24.10;48.00
35325;DHT22;35135;47.510;19.036;2023-06-05T10:03:57;24.10;48.00
35325;DHT22;35135;47.510;19.036;2023-06-05T10:06:25;24.10;47.80
35325;DHT22;35135;47.510;19.036;2023-06-05T10:08:53;24.10;48.10
35325;DHT22;35135;47.510;19.036;2023-06-05T10:11:21;24.20;48.00
35325;DHT22;35135;47.510;19.036;2023-06-05T10:13:48;24.20;48.00
35325;DHT22;35135;47.510;19.036;2023-06-05T10:16:17;24.20;47.90
35325;DHT22;35135;47.510;19.036;2023-06-05T10:18:47;24.20;47.80
35325;DHT22;35135;47.510;19.036;2023-06-05T10:21:17;24.30;48.00
35325;DHT22;35135;47.510;19.036;2023-06-05T10:24:11;24.30;47.80
35325;DHT22;35135;47.510;19.036;2023-06-05T10:34:56;24.40;47.20
35325;DHT22;35135;47.510;19.036;2023-06-05T10:40:04;24.40;46.70
35325;DHT22;35135;47.510;19.036;2023-06-05T10:42:30;24.50;46.80
35325;DHT22;35135;47.510;19.036;2023-06-05T10:44:56;24.50;46.60
35325;DHT22;35135;47.510;19.036;2023-06-05T10:52:42;24.50;44.80
35325;DHT22;35135;47.510;19.036;2023-06-05T10:55:08;24.50;45.40
35325;DHT22;35135;47.510;19.036;2023-06-05T10:58:03;24.50;44.90
35325;DHT22;35135;47.510;19.036;2023-06-05T11:00:30;24.50;44.70
35325;DHT22;35135;47.510;19.036;2023-06-05T11:02:56;24.50;45.00
35325;DHT22;35135;47.510;19.036;2023-06-05T11:05:22;24.50;44.90
35325;DHT22;35135;47.510;19.036;2023-06-05T11:08:11;24.50;43.70
35325;DHT22;35135;47.510;19.036;2023-06-05T11:11:05;24.50;43.70
35325;DHT22;35135;47.510;19.036;2023-06-05T11:13:57;24.50;43.00
35325;DHT22;35135;47.510;19.036;2023-06-05T11:16:31;24.50;42.40
35325;DHT22;35135;47.510;19.036;2023-06-05T11:22:09;24.50;43.50
35325;DHT22;35135;47.510;19.036;2023-06-05T11:24:36;24.50;42.60
35325;DHT22;35135;47.510;19.036;2023-06-05T11:27:03;24.50;42.20
35325;DHT22;35135;47.510;19.036;2023-06-05T11:29:29;24.50;42.50
35325;DHT22;35135;47.510;19.036;2023-06-05T11:31:55;24.50;42.40
35325;DHT22;35135;47.510;19.036;2023-06-05T11:34:21;24.50;42.00
35325;DHT22;35135;47.510;19.036;2023-06-05T11:36:47;24.50;42.10
35325;DHT22;35135;47.510;19.036;2023-06-05T11:39:13;24.50;42.30
35325;DHT22;35135;47.510;19.036;2023-06-05T11:41:46;24.50;42.60
35325;DHT22;35135;47.510;19.036;2023-06-05T11:44:14;24.60;42.90
35325;DHT22;35135;47.510;19.036;2023-06-05T11:46:43;24.60;42.70
35325;DHT22;35135;47.510;19.036;2023-06-05T11:49:23;24.60;42.80
35325;DHT22;35135;47.510;19.036;2023-06-05T11:51:50;24.60;43.00
35325;DHT22;35135;47.510;19.036;2023-06-05T11:54:30;24.60;43.00
35325;DHT22;35135;47.510;19.036;2023-06-05T11:57:00;24.60;43.40
35325;DHT22;35135;47.510;19.036;2023-06-05T11:59:36;24.60;43.30
35325;DHT22;35135;47.510;19.036;2023-06-05T12:02:03;24.70;43.30
35325;DHT22;35135;47.510;19.036;2023-06-05T12:04:33;24.70;43.60
35325;DHT22;35135;47.510;19.036;2023-06-05T12:06:59;24.70;43.50
35325;DHT22;35135;47.510;19.036;2023-06-05T12:09:26;24.70;43.60
35325;DHT22;35135;47.510;19.036;2023-06-05T12:11:52;24.70;43.70
35325;DHT22;35135;47.510;19.036;2023-06-05T12:14:31;24.80;43.50
35325;DHT22;35135;47.510;19.036;2023-06-05T12:16:58;24.80;43.70
35325;DHT22;35135;47.510;19.036;2023-06-05T12:19:23;24.80;43.50
35325;DHT22;35135;47.510;19.036;2023-06-05T12:21:50;24.80;43.50
35325;DHT22;35135;47.510;19.036;2023-06-05T12:24:26;24.80;43.40
35325;DHT22;35135;47.510;19.036;2023-06-05T12:26:59;24.80;43.60
35325;DHT22;35135;47.510;19.036;2023-06-05T12:29:27;24.80;43.20
35325;DHT22;35135;47.510;19.036;2023-06-05T12:32:00;24.80;43.10
35325;DHT22;35135;47.510;19.036;2023-06-05T12:34:43;24.90;43.60
35325;DHT22;35135;47.510;19.036;2023-06-05T12:37:29;24.90;43.30
35325;DHT22;35135;47.510;19.036;2023-06-05T12:39:58;24.90;43.10
35325;DHT22;35135;47.510;19.036;2023-06-05T12:42:27;24.90;43.30
35325;DHT22;35135;47.510;19.036;2023-06-05T12:44:54;24.90;43.10
35325;DHT22;35135;47.510;19.036;2023-06-05T12:47:19;24.90;43.00
35325;DHT22;35135;47.510;19.036;2023-06-05T12:49:46;24.90;43.60
35325;DHT22;35135;47.510;19.036;2023-06-05T12:52:12;25.00;42.90
35325;DHT22;35135;47.510;19.036;2023-06-05T12:54:38;24.90;43.30
35325;DHT22;35135;47.510;19.036;2023-06-05T12:57:07;24.90;42.80
35325;DHT22;35135;47.510;19.036;2023-06-05T12:59:34;24.90;43.00
35325;DHT22;35135;47.510;19.036;2023-06-05T13:01:59;25.00;43.20
35325;DHT22;35135;47.510;19.036;2023-06-05T13:04:25;25.00;43.10
35325;DHT22;35135;47.510;19.036;2023-06-05T13:06:51;25.00;43.00
35325;DHT22;35135;47.510;19.036;2023-06-05T13:09:17;25.00;43.10
35325;DHT22;35135;47.510;19.036;2023-06-05T13:11:43;25.00;43.00
35325;DHT22;35135;47.510;19.036;2023-06-05T13:14:09;25.00;42.20
35325;DHT22;35135;47.510;19.036;2023-06-05T13:16:35;25.00;42.50
35325;DHT22;35135;47.510;19.036;2023-06-05T13:19:00;25.00;42.40
35325;DHT22;35135;47.510;19.036;2023-06-05T13:21:26;25.00;42.40
35325;DHT22;35135;47.510;19.036;2023-06-05T13:23:52;25.00;42.50
35325;DHT22;35135;47.510;19.036;2023-06-05T13:26:18;25.00;42.50
35325;DHT22;35135;47.510;19.036;2023-06-05T13:28:44;25.10;42.40
35325;DHT22;35135;47.510;19.036;2023-06-05T13:31:13;25.10;42.40
35325;DHT22;35135;47.510;19.036;2023-06-05T13:33:39;25.10;42.30
35325;DHT22;35135;47.510;19.036;2023-06-05T13:36:06;25.10;42.40
35325;DHT22;35135;47.510;19.036;2023-06-05T13:38:32;25.10;42.50
35325;DHT22;35135;47.510;19.036;2023-06-05T13:40:58;25.10;42.40
35325;DHT22;35135;47.510;19.036;2023-06-05T13:43:23;25.10;42.10
35325;DHT22;35135;47.510;19.036;2023-06-05T13:45:49;25.10;41.30
35325;DHT22;35135;47.510;19.036;2023-06-05T13:48:15;25.10;40.60
35325;DHT22;35135;47.510;19.036;2023-06-05T13:50:40;25.10;40.90
35325;DHT22;35135;47.510;19.036;2023-06-05T13:53:07;25.00;40.40
35325;DHT22;35135;47.510;19.036;2023-06-05T13:55:32;25.00;40.70
35325;DHT22;35135;47.510;19.036;2023-06-05T13:57:58;25.00;40.40
35325;DHT22;35135;47.510;19.036;2023-06-05T14:00:30;25.00;40.60
35325;DHT22;35135;47.510;19.036;2023-06-05T14:02:57;25.00;40.80
35325;DHT22;35135;47.510;19.036;2023-06-05T14:05:23;25.00;40.40
35325;DHT22;35135;47.510;19.036;2023-06-05T14:07:50;25.00;40.80
35325;DHT22;35135;47.510;19.036;2023-06-05T14:10:18;25.10;40.90
35325;DHT22;35135;47.510;19.036;2023-06-05T14:12:44;25.10;41.30
35325;DHT22;35135;47.510;19.036;2023-06-05T14:15:10;25.10;41.40
35325;DHT22;35135;47.510;19.036;2023-06-05T14:17:35;25.10;41.30
35325;DHT22;35135;47.510;19.036;2023-06-05T14:20:01;25.10;41.30
35325;DHT22;35135;47.510;19.036;2023-06-05T14:22:27;25.10;41.70
35325;DHT22;35135;47.510;19.036;2023-06-05T14:24:54;25.10;41.80
35325;DHT22;35135;47.510;19.036;2023-06-05T14:27:19;25.10;41.70
35325;DHT22;35135;47.510;19.036;2023-06-05T14:29:45;25.10;41.30
35325;DHT22;35135;47.510;19.036;2023-06-05T14:32:11;25.10;41.30
35325;DHT22;35135;47.510;19.036;2023-06-05T14:34:37;25.10;41.30
35325;DHT22;35135;47.510;19.036;2023-06-05T14:37:02;25.20;41.50
35325;DHT22;35135;47.510;19.036;2023-06-05T14:39:28;25.20;41.40
35325;DHT22;35135;47.510;19.036;2023-06-05T14:41:54;25.20;41.40
35325;DHT22;35135;47.510;19.036;2023-06-05T14:44:20;25.20;41.60
35325;DHT22;35135;47.510;19.036;2023-06-05T14:46:45;25.20;41.70
35325;DHT22;35135;47.510;19.036;2023-06-05T14:49:12;25.20;41.20
35325;DHT22;35135;47.510;19.036;2023-06-05T14:51:38;25.20;41.20
35325;DHT22;35135;47.510;19.036;2023-06-05T14:54:04;25.20;41.40
35325;DHT22;35135;47.510;19.036;2023-06-05T14:56:30;25.20;41.20
35325;DHT22;35135;47.510;19.036;2023-06-05T14:58:55;25.20;41.40
35325;DHT22;35135;47.510;19.036;2023-06-05T15:01:21;25.20;41.00
35325;DHT22;35135;47.510;19.036;2023-06-05T15:03:47;25.20;41.20
35325;DHT22;35135;47.510;19.036;2023-06-05T15:06:13;25.20;41.40
35325;DHT22;35135;47.510;19.036;2023-06-05T15:08:39;25.20;41.30
35325;DHT22;35135;47.510;19.036;2023-06-05T15:11:05;25.20;40.90
35325;DHT22;35135;47.510;19.036;2023-06-05T15:13:31;25.20;40.60
35325;DHT22;35135;47.510;19.036;2023-06-05T15:15:57;25.20;41.10
35325;DHT22;35135;47.510;19.036;2023-06-05T15:18:25;25.20;41.10
35325;DHT22;35135;47.510;19.036;2023-06-05T15:20:51;25.20;42.00
35325;DHT22;35135;47.510;19.036;2023-06-05T15:23:17;25.20;42.30
35325;DHT22;35135;47.510;19.036;2023-06-05T15:25:42;25.20;42.20
35325;DHT22;35135;47.510;19.036;2023-06-05T15:28:08;25.20;41.90
35325;DHT22;35135;47.510;19.036;2023-06-05T15:30:34;25.20;42.00
35325;DHT22;35135;47.510;19.036;2023-06-05T15:33:00;25.20;42.00
35325;DHT22;35135;47.510;19.036;2023-06-05T15:35:28;25.20;42.40
35325;DHT22;35135;47.510;19.036;2023-06-05T15:37:54;25.20;41.30
35325;DHT22;35135;47.510;19.036;2023-06-05T15:40:19;25.20;42.30
35325;DHT22;35135;47.510;19.036;2023-06-05T15:42:47;25.20;41.80
35325;DHT22;35135;47.510;19.036;2023-06-05T15:45:25;25.20;41.60